Airfield :
LOGIN :

Register | Disclaimer

   EN    FR    IT 

 










Legend :    VFR   Marginal VFR   IFR   Intensive IFR   Very Intensive IFR
Visi :
Ceiling :
>= 8 km
>= 3000ft
5 to 8 km
1000 to 3000 ft
1500m to 5 km
500 to 1000 ft
800 to 1500m
200 to 500 ft
< 800m
< 200 ft
Symbols :   Thunderstorms  Fog  Heavy snow  Heavy precipitations  Wind > 20 kt
SIGMETs :     Misc.  Thunderstorms  Icing  Turbulence  Mountain Waves  Volcanic Ashes






- Airport Elevation : 13 ft
- IATA code : GOA


LIMJ - Genoa Cristoforo Colombo

CURRENT METAR :
  • 021220Z 04005KT 360V090 CAVOK 13/03 Q1016

EXPIRED METARs :
  • 021150Z 03005KT 360V060 9999 FEW050 13/03 Q1016
  • 021120Z 05008KT 020V080 9999 FEW050 13/03 Q1016
  • 021050Z 06008KT 9999 FEW045 12/03 Q1016
  • 021020Z 06009KT CAVOK 12/02 Q1017
  • 020950Z 05009KT CAVOK 11/02 Q1017

TAF TAF LIMJ
Valid from the 02 at 12:00 until the 03 at 12:00 UTC


021100Z 0212/0312 01006KT 9999 FEW060
BECMG 0220/0222 01016KT
TEMPO 0300/0312 01015G25KT
BECMG 0302/0304 4000 RA BKN014



MET'MAP, your aeronautical weather chart ! - Copyright ORBIFLY December 2007 - Disclaimer

ORBIFLY MET'MAP TEAM :

Programming & Development : Alexandra Zaïnal
Original concept : Baudouin d'Aumeries
Technical & hardware support : Manuel Goepfert
Assistance : Marc-Olivier Méhu




SOURCES & CREDITS :

   NOAA